createdAt,value
2022-12-18T00:01:39.645Z,100422.03
2022-12-18T00:04:08.087Z,100427.13
2022-12-18T00:06:36.217Z,100428.22
2022-12-18T00:09:04.734Z,100426.44
2022-12-18T00:11:32.856Z,100428.56
2022-12-18T00:14:01.128Z,100433.66
2022-12-18T00:16:29.346Z,100432.66
2022-12-18T00:18:57.842Z,100437.09
2022-12-18T00:21:24.363Z,100435.44
2022-12-18T00:23:51.676Z,100433.66
2022-12-18T00:26:20.642Z,100426.75
2022-12-18T00:28:49.014Z,100438.22
2022-12-18T00:31:18.301Z,100436.09
2022-12-18T00:33:45.397Z,100436.28
2022-12-18T00:36:14.434Z,100435.13
2022-12-18T00:38:41.826Z,100434.63
2022-12-18T00:41:11.462Z,100431.59
2022-12-18T00:43:40.365Z,100432.44
2022-12-18T00:46:08.800Z,100434.06
2022-12-18T00:48:36.260Z,100440.00
2022-12-18T00:51:02.841Z,100439.31
2022-12-18T00:53:29.388Z,100446.22
2022-12-18T00:55:55.946Z,100447.19
2022-12-18T00:58:22.499Z,100450.63
2022-12-18T01:00:49.169Z,100445.25
2022-12-18T01:03:17.355Z,100440.16
2022-12-18T01:05:44.227Z,100452.16
2022-12-18T01:08:10.765Z,100454.44
2022-12-18T01:10:37.280Z,100457.25
2022-12-18T01:13:04.027Z,100451.19
2022-12-18T01:15:30.600Z,100449.53
2022-12-18T01:17:57.236Z,100452.84
2022-12-18T01:20:25.411Z,100452.84
2022-12-18T01:22:52.099Z,100461.50
2022-12-18T01:25:18.842Z,100468.56
2022-12-18T01:27:45.389Z,100465.13
2022-12-18T01:30:12.590Z,100471.84
2022-12-18T01:32:39.381Z,100463.00
2022-12-18T01:35:07.198Z,100459.41
2022-12-18T01:37:35.153Z,100467.41
2022-12-18T01:40:01.882Z,100474.59
2022-12-18T01:42:28.425Z,100477.41
2022-12-18T01:45:01.415Z,100475.34
2022-12-18T01:47:33.160Z,100465.31
2022-12-18T01:50:03.434Z,100463.94
2022-12-18T01:52:33.666Z,100461.63
2022-12-18T01:55:04.066Z,100454.19
2022-12-18T01:57:30.695Z,100457.25
2022-12-18T02:00:02.043Z,100452.47
2022-12-18T02:02:30.312Z,100459.00
2022-12-18T02:04:57.160Z,100458.06
2022-12-18T02:07:33.703Z,100458.47
2022-12-18T02:10:07.655Z,100450.38
2022-12-18T02:12:43.870Z,100445.41
2022-12-18T02:15:15.627Z,100439.78
2022-12-18T02:17:48.535Z,100423.38
2022-12-18T02:20:21.360Z,100426.44
2022-12-18T02:23:01.370Z,100429.22
2022-12-18T02:25:44.751Z,100435.56
2022-12-18T02:28:17.043Z,100433.91
2022-12-18T02:30:48.114Z,100440.94
2022-12-18T02:33:16.035Z,100435.00
2022-12-18T02:35:44.598Z,100440.53
2022-12-18T02:38:12.897Z,100450.47
2022-12-18T02:40:41.695Z,100460.53
2022-12-18T02:43:09.879Z,100447.72
2022-12-18T02:45:47.094Z,100450.91
2022-12-18T02:48:14.209Z,100451.06
2022-12-18T02:50:50.421Z,100442.38
2022-12-18T02:53:27.436Z,100440.16
2022-12-18T02:56:04.083Z,100451.59
2022-12-18T02:58:41.199Z,100454.22
2022-12-18T03:01:15.143Z,100461.41
2022-12-18T03:03:46.924Z,100462.38
2022-12-18T03:06:19.329Z,100460.03
2022-12-18T03:08:50.811Z,100462.66
2022-12-18T03:11:17.599Z,100456.59
2022-12-18T03:13:48.389Z,100439.50
2022-12-18T03:16:23.902Z,100441.31
2022-12-18T03:18:53.235Z,100438.97
2022-12-18T03:21:26.898Z,100432.47
2022-12-18T03:23:54.749Z,100438.03
2022-12-18T03:26:28.769Z,100440.91
2022-12-18T03:29:00.853Z,100429.75
2022-12-18T03:31:32.088Z,100436.94
2022-12-18T03:34:01.844Z,100437.75
2022-12-18T03:36:31.557Z,100441.16
2022-12-18T03:38:58.335Z,100438.56
2022-12-18T03:41:32.134Z,100438.84
2022-12-18T03:44:07.516Z,100434.84
2022-12-18T03:46:44.614Z,100426.03
2022-12-18T03:49:15.467Z,100427.56
2022-12-18T03:51:49.759Z,100434.59
2022-12-18T03:54:18.353Z,100429.50
2022-12-18T03:56:49.813Z,100423.75
2022-12-18T03:59:18.176Z,100437.09
2022-12-18T04:01:48.646Z,100439.03
2022-12-18T04:04:17.045Z,100437.50
2022-12-18T04:06:46.509Z,100436.13
2022-12-18T04:09:13.697Z,100434.34
2022-12-18T04:11:41.225Z,100432.44
2022-12-18T04:14:08.088Z,100429.94
2022-12-18T04:16:35.722Z,100428.28
2022-12-18T04:19:03.881Z,100429.81
2022-12-18T04:21:30.453Z,100429.00
2022-12-18T04:23:57.024Z,100436.97
2022-12-18T04:26:23.990Z,100436.13
2022-12-18T04:28:50.674Z,100435.31
2022-12-18T04:31:17.200Z,100430.22
2022-12-18T04:33:43.776Z,100428.56
2022-12-18T04:36:11.658Z,100428.81
2022-12-18T04:38:38.231Z,100432.13
2022-12-18T04:41:05.083Z,100440.94
2022-12-18T04:43:31.779Z,100436.66
2022-12-18T04:46:02.931Z,100425.81
2022-12-18T04:48:29.494Z,100431.16
2022-12-18T04:50:56.135Z,100434.59
2022-12-18T04:53:24.388Z,100430.34
2022-12-18T04:55:50.971Z,100433.25
2022-12-18T04:58:17.585Z,100439.31
2022-12-18T05:00:44.138Z,100441.09
2022-12-18T05:03:10.723Z,100439.44
2022-12-18T05:05:37.247Z,100433.38
2022-12-18T05:08:04.230Z,100434.34
2022-12-18T05:10:37.784Z,100439.56
2022-12-18T05:13:04.905Z,100443.13
2022-12-18T05:15:33.029Z,100455.38
2022-12-18T05:18:00.497Z,100455.50
2022-12-18T05:20:28.861Z,100458.25
2022-12-18T05:22:55.988Z,100464.31
2022-12-18T05:25:23.381Z,100467.22
2022-12-18T05:27:51.331Z,100478.50
2022-12-18T05:30:18.391Z,100483.03
2022-12-18T05:32:44.915Z,100485.75
2022-12-18T05:35:12.078Z,100493.72
2022-12-18T05:37:42.907Z,100487.81
2022-12-18T05:40:11.017Z,100481.75
2022-12-18T05:42:37.897Z,100474.91
2022-12-18T05:45:07.140Z,100472.41
2022-12-18T05:47:33.789Z,100463.06
2022-12-18T05:50:00.517Z,100459.63
2022-12-18T05:52:27.247Z,100454.25
2022-12-18T05:54:53.948Z,100449.28
2022-12-18T05:57:20.514Z,100446.81
2022-12-18T05:59:47.164Z,100445.97
2022-12-18T06:02:15.174Z,100443.53
2022-12-18T06:04:41.801Z,100449.56
2022-12-18T06:07:08.318Z,100444.34
2022-12-18T06:09:34.812Z,100442.69
2022-12-18T06:12:01.362Z,100440.22
2022-12-18T06:14:28.246Z,100431.53
2022-12-18T06:16:54.785Z,100440.22
2022-12-18T06:19:22.694Z,100440.09
2022-12-18T06:21:49.169Z,100430.72
2022-12-18T06:24:16.126Z,100430.84
2022-12-18T06:26:42.749Z,100437.16
2022-12-18T06:29:09.451Z,100438.94
2022-12-18T06:31:36.269Z,100441.84
2022-12-18T06:34:03.950Z,100439.38
2022-12-18T06:36:31.942Z,100444.59
2022-12-18T06:38:59.216Z,100453.38
2022-12-18T06:41:25.955Z,100462.88
2022-12-18T06:43:56.750Z,100473.06
2022-12-18T06:46:26.479Z,100476.50
2022-12-18T06:48:52.990Z,100480.91
2022-12-18T06:51:20.984Z,100479.66
2022-12-18T06:53:49.139Z,100483.81
2022-12-18T06:56:15.736Z,100491.63
2022-12-18T06:58:42.322Z,100482.97
2022-12-18T07:01:10.664Z,100488.78
2022-12-18T07:03:37.978Z,100495.50
2022-12-18T07:06:05.047Z,100499.22
2022-12-18T07:08:31.724Z,100494.25
2022-12-18T07:10:59.613Z,100499.72
2022-12-18T07:13:26.183Z,100500.81
2022-12-18T07:15:52.768Z,100501.66
2022-12-18T07:18:19.309Z,100512.66
2022-12-18T07:20:46.012Z,100510.63
2022-12-18T07:23:14.349Z,100507.84
2022-12-18T07:25:41.226Z,100517.75
2022-12-18T07:28:12.890Z,100517.75
2022-12-18T07:30:43.866Z,100515.97
2022-12-18T07:33:10.456Z,100510.63
2022-12-18T07:35:37.788Z,100507.06
2022-12-18T07:38:04.790Z,100507.06
2022-12-18T07:40:31.294Z,100506.78
2022-12-18T07:42:58.229Z,100508.31
2022-12-18T07:45:26.383Z,100511.50
2022-12-18T07:47:53.195Z,100499.91
2022-12-18T07:50:20.185Z,100503.94
2022-12-18T07:52:47.159Z,100501.84
2022-12-18T07:55:14.165Z,100500.50
2022-12-18T07:57:50.749Z,100486.06
2022-12-18T08:00:19.356Z,100493.94
2022-12-18T08:02:48.301Z,100501.66
2022-12-18T08:05:16.086Z,100500.09
2022-12-18T08:07:42.833Z,100501.06
2022-12-18T08:10:10.144Z,100506.16
2022-12-18T08:12:36.708Z,100494.19
2022-12-18T08:15:04.909Z,100504.91
2022-12-18T08:17:33.113Z,100507.00
2022-12-18T08:20:01.219Z,100494.16
2022-12-18T08:22:27.868Z,100492.38
2022-12-18T08:24:54.453Z,100492.63
2022-12-18T08:27:31.213Z,100491.25
2022-12-18T08:29:58.739Z,100493.31
2022-12-18T08:32:25.796Z,100488.31
2022-12-18T08:34:52.623Z,100485.41
2022-12-18T08:37:20.564Z,100478.13
2022-12-18T08:39:47.318Z,100480.28
2022-12-18T08:42:13.893Z,100476.13
2022-12-18T08:44:40.430Z,100471.16
2022-12-18T08:47:07.722Z,100463.53
2022-12-18T08:49:34.906Z,100464.88
2022-12-18T08:52:01.711Z,100465.78
2022-12-18T08:54:29.706Z,100463.28
2022-12-18T08:56:56.248Z,100464.72
2022-12-18T08:59:22.848Z,100468.47
2022-12-18T09:01:51.317Z,100463.56
2022-12-18T09:04:17.963Z,100465.81
2022-12-18T09:06:44.618Z,100460.34
2022-12-18T09:09:11.348Z,100462.59
2022-12-18T09:11:39.373Z,100462.81
2022-12-18T09:14:05.898Z,100451.25
2022-12-18T09:16:33.739Z,100454.25
2022-12-18T09:19:01.203Z,100453.94
2022-12-18T09:21:30.057Z,100466.31
2022-12-18T09:23:57.231Z,100466.91
2022-12-18T09:26:24.994Z,100457.91
2022-12-18T09:28:53.351Z,100443.69
2022-12-18T09:31:22.235Z,100438.00
2022-12-18T09:33:49.022Z,100438.72
2022-12-18T09:36:17.999Z,100426.63
2022-12-18T09:38:44.796Z,100423.88
2022-12-18T09:41:28.222Z,100430.50
2022-12-18T09:44:01.391Z,100441.56
2022-12-18T09:46:31.480Z,100454.88
2022-12-18T09:49:01.900Z,100461.00
2022-12-18T09:51:31.602Z,100459.88
2022-12-18T09:54:03.831Z,100462.00
2022-12-18T09:56:35.776Z,100470.91
2022-12-18T09:59:05.568Z,100474.03
2022-12-18T10:01:41.443Z,100459.59
2022-12-18T10:04:10.253Z,100458.13
2022-12-18T10:06:43.859Z,100448.41
2022-12-18T10:09:21.721Z,100457.78
2022-12-18T10:11:58.394Z,100451.19
2022-12-18T10:14:35.061Z,100447.91
2022-12-18T10:17:14.520Z,100444.94
2022-12-18T10:19:46.185Z,100437.84
2022-12-18T10:22:23.242Z,100434.72
2022-12-18T10:25:00.665Z,100430.44
2022-12-18T10:27:28.352Z,100443.94
2022-12-18T10:29:56.745Z,100465.50
2022-12-18T10:32:25.500Z,100456.09
2022-12-18T10:34:59.792Z,100462.50
2022-12-18T10:37:28.986Z,100458.03
2022-12-18T10:40:13.256Z,100446.66
2022-12-18T10:42:43.449Z,100440.53
2022-12-18T10:45:15.144Z,100441.47
2022-12-18T10:47:45.689Z,100440.41
2022-12-18T10:50:26.270Z,100432.47
2022-12-18T10:53:00.439Z,100425.47
2022-12-18T10:55:32.923Z,100414.22
2022-12-18T10:58:18.304Z,100421.25
2022-12-18T11:01:04.206Z,100439.53
2022-12-18T11:03:32.917Z,100434.13
2022-12-18T11:06:05.111Z,100427.69
2022-12-18T11:08:31.813Z,100413.81
2022-12-18T11:10:58.646Z,100408.19
2022-12-18T11:13:27.602Z,100408.13
2022-12-18T11:15:55.874Z,100396.69
2022-12-18T11:18:27.371Z,100405.50
2022-12-18T11:20:58.643Z,100397.75
2022-12-18T11:23:26.511Z,100393.53
2022-12-18T11:25:56.081Z,100371.84
2022-12-18T11:28:36.389Z,100369.06
2022-12-18T11:31:25.723Z,100372.22
2022-12-18T11:34:27.443Z,100364.00
2022-12-18T11:36:47.539Z,100359.53
2022-12-18T11:39:19.976Z,100352.09
2022-12-18T11:41:53.838Z,100354.22
2022-12-18T11:44:26.102Z,100361.16
2022-12-18T11:47:00.678Z,100350.16
2022-12-18T11:49:33.471Z,100354.75
2022-12-18T11:52:05.676Z,100338.41
2022-12-18T11:54:32.228Z,100336.19
2022-12-18T11:57:06.943Z,100341.88
2022-12-18T11:59:40.189Z,100350.69
2022-12-18T12:02:30.724Z,100336.50
2022-12-18T12:05:16.468Z,100327.13
2022-12-18T12:07:51.876Z,100316.16
2022-12-18T12:10:30.556Z,100304.81
2022-12-18T12:13:13.588Z,100311.31
2022-12-18T12:15:52.939Z,100298.31
2022-12-18T12:18:30.925Z,100291.00
2022-12-18T12:21:08.341Z,100289.22
2022-12-18T12:23:43.227Z,100297.66
2022-12-18T12:26:16.546Z,100297.03
2022-12-18T12:28:58.236Z,100294.25
2022-12-18T12:31:37.665Z,100304.47
2022-12-18T12:34:18.802Z,100294.81
2022-12-18T12:36:57.017Z,100288.31
2022-12-18T12:39:28.574Z,100286.66
2022-12-18T12:41:55.998Z,100285.03
2022-12-18T12:44:27.380Z,100275.81
2022-12-18T12:47:01.772Z,100276.03
2022-12-18T12:49:36.328Z,100282.75
2022-12-18T12:52:13.368Z,100276.56
2022-12-18T12:54:40.858Z,100276.78
2022-12-18T12:57:13.682Z,100278.19
2022-12-18T12:59:50.759Z,100281.66
2022-12-18T13:02:23.508Z,100288.81
2022-12-18T13:05:02.032Z,100298.22
2022-12-18T13:07:33.477Z,100302.09
2022-12-18T13:10:29.175Z,100308.41
2022-12-18T13:12:58.625Z,100293.09
2022-12-18T13:15:31.439Z,100284.94
2022-12-18T13:18:19.483Z,100293.09
2022-12-18T13:20:55.444Z,100296.75
2022-12-18T13:23:34.978Z,100306.19
2022-12-18T13:26:36.408Z,100295.31
2022-12-18T13:29:03.610Z,100292.47
2022-12-18T13:32:08.584Z,100290.63
2022-12-18T13:34:35.564Z,100283.66
2022-12-18T13:37:39.688Z,100288.97
2022-12-18T13:40:51.373Z,100293.00
2022-12-18T13:43:27.797Z,100296.69
2022-12-18T13:46:03.736Z,100288.72
2022-12-18T13:48:33.341Z,100284.91
2022-12-18T13:51:02.764Z,100277.72
2022-12-18T13:53:34.050Z,100270.38
2022-12-18T13:56:00.747Z,100282.00
2022-12-18T13:58:28.661Z,100272.81
2022-12-18T14:00:55.355Z,100281.56
2022-12-18T14:03:24.195Z,100270.97
2022-12-18T14:05:57.519Z,100268.94
2022-12-18T14:08:33.351Z,100273.97
2022-12-18T14:11:00.120Z,100271.50
2022-12-18T14:13:31.245Z,100273.31
2022-12-18T14:16:00.945Z,100278.19
2022-12-18T14:18:37.517Z,100276.78
2022-12-18T14:21:05.439Z,100278.81
2022-12-18T14:23:34.635Z,100277.94
2022-12-18T14:26:05.980Z,100283.63
2022-12-18T14:28:34.242Z,100275.06
2022-12-18T14:31:01.055Z,100273.22
2022-12-18T14:33:28.661Z,100275.84
2022-12-18T14:35:58.756Z,100276.84
2022-12-18T14:38:28.966Z,100275.66
2022-12-18T14:40:58.241Z,100276.66
2022-12-18T14:43:25.292Z,100274.59
2022-12-18T14:45:54.008Z,100277.00
2022-12-18T14:48:23.951Z,100281.03
2022-12-18T14:51:00.989Z,100279.56
2022-12-18T14:53:34.976Z,100282.59
2022-12-18T14:56:02.767Z,100274.22
2022-12-18T14:58:29.589Z,100284.38
2022-12-18T15:00:57.779Z,100287.22
2022-12-18T15:03:24.506Z,100281.88
2022-12-18T15:05:52.256Z,100279.59
2022-12-18T15:08:32.098Z,100276.34
2022-12-18T15:10:59.578Z,100279.53
2022-12-18T15:13:26.666Z,100277.66
2022-12-18T15:15:54.961Z,100272.56
2022-12-18T15:18:30.666Z,100283.53
2022-12-18T15:20:59.272Z,100277.34
2022-12-18T15:23:28.481Z,100277.72
2022-12-18T15:25:59.776Z,100272.00
2022-12-18T15:28:30.031Z,100277.88
2022-12-18T15:31:01.738Z,100265.03
2022-12-18T15:33:32.992Z,100262.94
2022-12-18T15:36:00.890Z,100260.69
2022-12-18T15:38:28.216Z,100255.56
2022-12-18T15:40:55.437Z,100256.56
2022-12-18T15:43:23.554Z,100255.94
2022-12-18T15:45:50.168Z,100257.75
2022-12-18T15:48:21.604Z,100252.84
2022-12-18T15:50:50.815Z,100267.09
2022-12-18T15:53:17.536Z,100271.38
2022-12-18T15:55:44.138Z,100269.75
2022-12-18T15:58:11.590Z,100258.53
2022-12-18T16:00:40.947Z,100257.06
2022-12-18T16:03:07.711Z,100249.13
2022-12-18T16:05:34.496Z,100258.91
2022-12-18T16:08:02.451Z,100251.97
2022-12-18T16:10:29.727Z,100257.25
2022-12-18T16:12:56.263Z,100244.00
2022-12-18T16:15:24.992Z,100239.53
2022-12-18T16:17:52.260Z,100238.72
2022-12-18T16:20:20.905Z,100240.38
2022-12-18T16:22:48.211Z,100229.78
2022-12-18T16:25:20.438Z,100229.78
2022-12-18T16:27:47.177Z,100226.94
2022-12-18T16:30:16.741Z,100225.13
2022-12-18T16:32:43.487Z,100210.69
2022-12-18T16:35:11.935Z,100201.94
2022-12-18T16:37:38.813Z,100195.63
2022-12-18T16:40:07.199Z,100192.16
2022-12-18T16:42:35.746Z,100198.88
2022-12-18T16:45:02.301Z,100192.56
2022-12-18T16:47:29.131Z,100196.03
2022-12-18T16:49:55.864Z,100194.03
2022-12-18T16:52:22.485Z,100192.44
2022-12-18T16:54:49.054Z,100191.25
2022-12-18T16:57:18.303Z,100191.25
2022-12-18T16:59:46.865Z,100176.38
2022-12-18T17:02:14.685Z,100191.06
2022-12-18T17:04:42.194Z,100184.56
2022-12-18T17:07:08.813Z,100180.09
2022-12-18T17:09:35.719Z,100173.75
2022-12-18T17:12:04.534Z,100177.03
2022-12-18T17:14:32.962Z,100177.88
2022-12-18T17:17:20.905Z,100167.28
2022-12-18T17:19:47.812Z,100163.63
2022-12-18T17:22:14.547Z,100163.44
2022-12-18T17:24:41.069Z,100162.00
2022-12-18T17:27:07.596Z,100167.75
2022-12-18T17:29:34.256Z,100167.22
2022-12-18T17:32:02.273Z,100161.78
2022-12-18T17:34:29.013Z,100162.00
2022-12-18T17:36:56.726Z,100154.84
2022-12-18T17:39:23.538Z,100170.84
2022-12-18T17:41:50.147Z,100179.66
2022-12-18T17:44:17.748Z,100187.59
2022-12-18T17:46:44.785Z,100194.56
2022-12-18T17:49:13.464Z,100188.06
2022-12-18T17:51:40.145Z,100194.38
2022-12-18T17:54:06.691Z,100196.03
2022-12-18T17:56:33.259Z,100200.31
2022-12-18T17:58:59.975Z,100199.06
2022-12-18T18:01:26.870Z,100187.84
2022-12-18T18:03:54.395Z,100191.69
2022-12-18T18:06:23.101Z,100190.25
2022-12-18T18:08:49.905Z,100185.56
2022-12-18T18:11:19.688Z,100185.56
2022-12-18T18:13:47.113Z,100170.88
2022-12-18T18:16:14.027Z,100169.22
2022-12-18T18:18:40.689Z,100163.94
2022-12-18T18:21:08.923Z,100163.13
2022-12-18T18:23:37.318Z,100155.97
2022-12-18T18:26:07.640Z,100161.91
2022-12-18T18:28:34.263Z,100155.81
2022-12-18T18:31:04.588Z,100149.31
2022-12-18T18:33:31.377Z,100149.75
2022-12-18T18:35:57.943Z,100147.31
2022-12-18T18:38:25.806Z,100136.91
2022-12-18T18:40:59.234Z,100135.06
2022-12-18T18:43:25.936Z,100132.66
2022-12-18T18:45:55.391Z,100129.38
2022-12-18T18:48:22.175Z,100132.84
2022-12-18T18:50:56.254Z,100126.91
2022-12-18T18:53:22.777Z,100123.44
2022-12-18T18:56:16.591Z,100119.78
2022-12-18T18:58:37.993Z,100123.69
2022-12-18T19:01:07.225Z,100121.22
2022-12-18T19:03:34.845Z,100115.72
2022-12-18T19:06:01.652Z,100119.19
2022-12-18T19:08:30.291Z,100118.81
2022-12-18T19:10:59.139Z,100121.03
2022-12-18T19:13:27.688Z,100117.78
2022-12-18T19:16:05.656Z,100126.34
2022-12-18T19:18:33.527Z,100107.81
2022-12-18T19:21:03.734Z,100121.47
2022-12-18T19:23:31.506Z,100123.53
2022-12-18T19:26:26.669Z,100121.47
2022-12-18T19:28:47.828Z,100110.66
2022-12-18T19:31:24.475Z,100100.63
2022-12-18T19:33:56.391Z,100100.03
2022-12-18T19:36:25.445Z,100099.00
2022-12-18T19:38:54.544Z,100098.81
2022-12-18T19:41:22.563Z,100104.09
2022-12-18T19:43:50.973Z,100102.69
2022-12-18T19:46:23.301Z,100101.88
2022-12-18T19:48:56.454Z,100111.06
2022-12-18T19:51:25.751Z,100107.59
2022-12-18T19:53:58.500Z,100107.19
2022-12-18T19:56:28.118Z,100105.75
2022-12-18T19:58:55.680Z,100110.28
2022-12-18T20:01:26.048Z,100107.00
2022-12-18T20:03:54.645Z,100105.56
2022-12-18T20:06:26.619Z,100113.50
2022-12-18T20:09:00.224Z,100102.28
2022-12-18T20:11:28.134Z,100105.75
2022-12-18T20:13:56.774Z,100103.09
2022-12-18T20:16:24.955Z,100094.31
2022-12-18T20:18:52.298Z,100091.03
2022-12-18T20:21:19.270Z,100086.56
2022-12-18T20:23:46.648Z,100087.59
2022-12-18T20:26:14.340Z,100088.38
2022-12-18T20:28:41.843Z,100082.06
2022-12-18T20:31:10.613Z,100084.72
2022-12-18T20:33:43.099Z,100079.22
2022-12-18T20:36:15.278Z,100076.38
2022-12-18T20:38:43.639Z,100077.81
2022-12-18T20:41:17.160Z,100073.91
2022-12-18T20:43:45.035Z,100074.53
2022-12-18T20:46:14.003Z,100061.91
2022-12-18T20:48:42.658Z,100066.63
2022-12-18T20:51:12.351Z,100072.50
2022-12-18T20:53:42.107Z,100075.78
2022-12-18T20:56:13.705Z,100074.78
2022-12-18T20:58:45.160Z,100072.94
2022-12-18T21:01:14.189Z,100066.63
2022-12-18T21:03:44.155Z,100056.41
2022-12-18T21:06:11.543Z,100064.16
2022-12-18T21:08:38.943Z,100078.03
2022-12-18T21:11:17.647Z,100076.22
2022-12-18T21:13:47.568Z,100068.25
2022-12-18T21:16:14.841Z,100062.94
2022-12-18T21:18:44.516Z,100067.22
2022-12-18T21:21:11.688Z,100061.72
2022-12-18T21:23:39.070Z,100052.75
2022-12-18T21:26:16.418Z,100057.00
2022-12-18T21:28:44.039Z,100056.00
2022-12-18T21:31:11.207Z,100050.69
2022-12-18T21:33:38.780Z,100047.81
2022-12-18T21:36:08.300Z,100051.09
2022-12-18T21:38:35.674Z,100049.25
2022-12-18T21:41:05.953Z,100057.22
2022-12-18T21:43:33.395Z,100050.91
2022-12-18T21:46:00.080Z,100055.78
2022-12-18T21:48:26.736Z,100049.47
2022-12-18T21:50:53.518Z,100046.59
2022-12-18T21:53:21.907Z,100052.34
2022-12-18T21:55:57.309Z,100054.56
2022-12-18T21:58:23.907Z,100053.53
2022-12-18T22:00:50.910Z,100052.53
2022-12-18T22:03:19.418Z,100051.50
2022-12-18T22:05:46.090Z,100051.91
2022-12-18T22:08:15.975Z,100048.44
2022-12-18T22:10:44.232Z,100054.56
2022-12-18T22:13:11.061Z,100048.00
2022-12-18T22:15:37.735Z,100057.41
2022-12-18T22:18:04.438Z,100047.22
2022-12-18T22:20:31.019Z,100039.88
2022-12-18T22:22:57.905Z,100027.38
2022-12-18T22:25:24.563Z,100044.53
2022-12-18T22:27:52.565Z,100041.47
2022-12-18T22:30:19.226Z,100049.25
2022-12-18T22:32:45.970Z,100046.34
2022-12-18T22:35:15.801Z,100038.38
2022-12-18T22:37:42.749Z,100039.41
2022-12-18T22:40:23.555Z,100046.34
2022-12-18T22:42:52.656Z,100040.03
2022-12-18T22:45:22.447Z,100037.16
2022-12-18T22:47:49.101Z,100034.31
2022-12-18T22:50:15.750Z,100033.28
2022-12-18T22:52:42.460Z,100031.00
2022-12-18T22:55:09.428Z,100031.63
2022-12-18T22:57:36.050Z,100034.91
2022-12-18T23:00:06.320Z,100030.41
2022-12-18T23:02:33.003Z,100023.63
2022-12-18T23:04:59.719Z,100026.09
2022-12-18T23:07:26.310Z,100021.19
2022-12-18T23:09:58.927Z,100011.16
2022-12-18T23:12:27.740Z,100008.69
2022-12-18T23:14:54.931Z,100009.91
2022-12-18T23:17:22.843Z,100007.63
2022-12-18T23:19:49.620Z,100012.75
2022-12-18T23:22:16.392Z,100008.25
2022-12-18T23:24:43.071Z,100001.69
2022-12-18T23:27:11.508Z,100003.91
2022-12-18T23:29:38.692Z,99993.09
2022-12-18T23:32:05.195Z,99996.56
2022-12-18T23:34:33.078Z,99997.38
2022-12-18T23:36:59.588Z,99989.19
2022-12-18T23:39:29.548Z,99994.50
2022-12-18T23:41:56.803Z,99990.81
2022-12-18T23:44:23.542Z,99980.81
2022-12-18T23:46:50.364Z,99976.88
2022-12-18T23:49:16.993Z,99970.53
2022-12-18T23:51:44.935Z,99970.13
2022-12-18T23:54:11.489Z,99975.44
2022-12-18T23:56:38.063Z,99974.22
2022-12-18T23:59:04.830Z,99966.03
